Terminal Aerodrome Forecast
Issued by NWS

Home | Current Version | Previous Version | Graphics & Text | Print | Product List | Glossary On
Versions: 1 2 3 4 5 6 7 8 9 10 11 12 13 14 15 16 17 18 19 20 21
774
FTUS43 KGRB 211130
TAFCWA
TAF
KCWA 211130Z 2112/2212 17008KT P6SM BKN120 WS020/21040KT
     FM211500 18012G22KT P6SM BKN250
     FM212200 17010KT P6SM BKN060 WS020/21045KT
     FM220700 18010KT 6SM -SHRA OVC035 WS020/21040KT
     FM221100 24007KT 5SM -SHRA OVC027 WS020/22040KT=

USA.gov is the U.S. government's official web portal to all federal, state and local government web resources and services.